sensor_id;sensor_type;location;lat;lon;timestamp;P1;durP1;ratioP1;P2;durP2;ratioP2
78750;SDS011;68070;50.954;11.060;2023-05-07T00:02:24;23.10;;;16.00;;
78750;SDS011;68070;50.954;11.060;2023-05-07T00:05:09;24.10;;;15.30;;
78750;SDS011;68070;50.954;11.060;2023-05-07T00:07:54;26.20;;;16.00;;
78750;SDS011;68070;50.954;11.060;2023-05-07T00:10:38;30.90;;;18.20;;
78750;SDS011;68070;50.954;11.060;2023-05-07T00:13:22;26.40;;;14.30;;
78750;SDS011;68070;50.954;11.060;2023-05-07T00:16:07;27.70;;;18.10;;
78750;SDS011;68070;50.954;11.060;2023-05-07T00:18:52;19.40;;;14.30;;
78750;SDS011;68070;50.954;11.060;2023-05-07T00:21:36;25.70;;;15.00;;
78750;SDS011;68070;50.954;11.060;2023-05-07T00:24:21;25.00;;;16.50;;
78750;SDS011;68070;50.954;11.060;2023-05-07T00:27:05;23.00;;;12.20;;
78750;SDS011;68070;50.954;11.060;2023-05-07T00:29:50;17.40;;;11.60;;
78750;SDS011;68070;50.954;11.060;2023-05-07T00:32:34;19.90;;;13.60;;
78750;SDS011;68070;50.954;11.060;2023-05-07T00:35:19;24.70;;;15.70;;
78750;SDS011;68070;50.954;11.060;2023-05-07T00:38:03;29.00;;;16.50;;
78750;SDS011;68070;50.954;11.060;2023-05-07T00:40:48;25.30;;;16.40;;
78750;SDS011;68070;50.954;11.060;2023-05-07T00:43:32;20.90;;;13.30;;
78750;SDS011;68070;50.954;11.060;2023-05-07T00:46:17;23.20;;;14.50;;
78750;SDS011;68070;50.954;11.060;2023-05-07T00:49:02;14.60;;;9.00;;
78750;SDS011;68070;50.954;11.060;2023-05-07T00:51:47;23.80;;;13.80;;
78750;SDS011;68070;50.954;11.060;2023-05-07T00:54:31;21.70;;;12.50;;
78750;SDS011;68070;50.954;11.060;2023-05-07T00:57:17;29.10;;;15.70;;
78750;SDS011;68070;50.954;11.060;2023-05-07T01:00:01;31.50;;;16.60;;
78750;SDS011;68070;50.954;11.060;2023-05-07T01:02:47;26.90;;;15.20;;
78750;SDS011;68070;50.954;11.060;2023-05-07T01:05:32;20.40;;;10.60;;
78750;SDS011;68070;50.954;11.060;2023-05-07T01:08:16;33.60;;;18.50;;
78750;SDS011;68070;50.954;11.060;2023-05-07T01:11:02;29.10;;;18.20;;
78750;SDS011;68070;50.954;11.060;2023-05-07T01:13:47;29.50;;;14.60;;
78750;SDS011;68070;50.954;11.060;2023-05-07T01:16:34;23.40;;;13.30;;
78750;SDS011;68070;50.954;11.060;2023-05-07T01:19:19;28.00;;;15.70;;
78750;SDS011;68070;50.954;11.060;2023-05-07T01:22:07;25.40;;;15.30;;
78750;SDS011;68070;50.954;11.060;2023-05-07T01:25:01;27.10;;;16.20;;
78750;SDS011;68070;50.954;11.060;2023-05-07T01:27:45;29.60;;;16.50;;
78750;SDS011;68070;50.954;11.060;2023-05-07T01:30:30;29.50;;;17.10;;
78750;SDS011;68070;50.954;11.060;2023-05-07T01:33:16;34.60;;;17.60;;
78750;SDS011;68070;50.954;11.060;2023-05-07T01:36:06;28.80;;;17.20;;
78750;SDS011;68070;50.954;11.060;2023-05-07T01:38:52;23.50;;;14.90;;
78750;SDS011;68070;50.954;11.060;2023-05-07T01:41:37;28.50;;;14.40;;
78750;SDS011;68070;50.954;11.060;2023-05-07T01:44:22;18.30;;;10.80;;
78750;SDS011;68070;50.954;11.060;2023-05-07T01:47:08;21.50;;;12.40;;
78750;SDS011;68070;50.954;11.060;2023-05-07T01:49:53;24.60;;;14.50;;
78750;SDS011;68070;50.954;11.060;2023-05-07T01:52:39;29.40;;;15.90;;
78750;SDS011;68070;50.954;11.060;2023-05-07T01:55:23;28.20;;;16.40;;
78750;SDS011;68070;50.954;11.060;2023-05-07T01:58:08;29.80;;;18.90;;
78750;SDS011;68070;50.954;11.060;2023-05-07T02:00:53;22.10;;;13.30;;
78750;SDS011;68070;50.954;11.060;2023-05-07T02:03:37;24.70;;;15.30;;
78750;SDS011;68070;50.954;11.060;2023-05-07T02:06:25;27.50;;;15.70;;
78750;SDS011;68070;50.954;11.060;2023-05-07T02:09:14;25.40;;;14.80;;
78750;SDS011;68070;50.954;11.060;2023-05-07T02:12:00;26.30;;;14.70;;
78750;SDS011;68070;50.954;11.060;2023-05-07T02:14:45;24.80;;;14.10;;
78750;SDS011;68070;50.954;11.060;2023-05-07T02:17:30;22.60;;;11.90;;
78750;SDS011;68070;50.954;11.060;2023-05-07T02:20:16;24.20;;;14.10;;
78750;SDS011;68070;50.954;11.060;2023-05-07T02:23:00;26.50;;;15.20;;
78750;SDS011;68070;50.954;11.060;2023-05-07T02:25:45;21.50;;;13.20;;
78750;SDS011;68070;50.954;11.060;2023-05-07T02:28:30;22.80;;;13.60;;
78750;SDS011;68070;50.954;11.060;2023-05-07T02:31:17;27.70;;;17.80;;
78750;SDS011;68070;50.954;11.060;2023-05-07T02:34:01;32.70;;;16.50;;
78750;SDS011;68070;50.954;11.060;2023-05-07T02:36:47;27.20;;;15.30;;
78750;SDS011;68070;50.954;11.060;2023-05-07T02:39:33;25.70;;;16.90;;
78750;SDS011;68070;50.954;11.060;2023-05-07T02:42:18;18.70;;;12.30;;
78750;SDS011;68070;50.954;11.060;2023-05-07T02:45:02;21.80;;;13.20;;
78750;SDS011;68070;50.954;11.060;2023-05-07T02:47:47;27.40;;;13.90;;
78750;SDS011;68070;50.954;11.060;2023-05-07T02:50:32;25.90;;;14.20;;
78750;SDS011;68070;50.954;11.060;2023-05-07T02:53:16;22.30;;;14.80;;
78750;SDS011;68070;50.954;11.060;2023-05-07T02:56:01;26.50;;;15.80;;
78750;SDS011;68070;50.954;11.060;2023-05-07T02:58:46;20.30;;;10.60;;
78750;SDS011;68070;50.954;11.060;2023-05-07T03:01:30;24.20;;;12.30;;
78750;SDS011;68070;50.954;11.060;2023-05-07T03:04:23;23.40;;;12.40;;
78750;SDS011;68070;50.954;11.060;2023-05-07T03:07:07;20.30;;;13.30;;
78750;SDS011;68070;50.954;11.060;2023-05-07T03:09:51;20.00;;;12.50;;
78750;SDS011;68070;50.954;11.060;2023-05-07T03:12:36;22.70;;;12.40;;
78750;SDS011;68070;50.954;11.060;2023-05-07T03:15:21;19.30;;;12.50;;
78750;SDS011;68070;50.954;11.060;2023-05-07T03:18:05;19.10;;;14.20;;
78750;SDS011;68070;50.954;11.060;2023-05-07T03:20:50;21.50;;;13.00;;
78750;SDS011;68070;50.954;11.060;2023-05-07T03:23:35;20.90;;;10.70;;
78750;SDS011;68070;50.954;11.060;2023-05-07T03:26:20;20.50;;;12.90;;
78750;SDS011;68070;50.954;11.060;2023-05-07T03:29:05;15.60;;;10.50;;
78750;SDS011;68070;50.954;11.060;2023-05-07T03:31:49;22.10;;;13.00;;
78750;SDS011;68070;50.954;11.060;2023-05-07T03:34:33;25.60;;;12.90;;
78750;SDS011;68070;50.954;11.060;2023-05-07T03:37:18;14.10;;;9.70;;
78750;SDS011;68070;50.954;11.060;2023-05-07T03:40:02;17.80;;;10.30;;
78750;SDS011;68070;50.954;11.060;2023-05-07T03:42:49;19.10;;;12.20;;
78750;SDS011;68070;50.954;11.060;2023-05-07T03:45:35;16.40;;;9.80;;
78750;SDS011;68070;50.954;11.060;2023-05-07T03:48:26;16.10;;;9.60;;
78750;SDS011;68070;50.954;11.060;2023-05-07T03:51:11;17.20;;;10.50;;
78750;SDS011;68070;50.954;11.060;2023-05-07T03:53:56;17.90;;;11.30;;
78750;SDS011;68070;50.954;11.060;2023-05-07T03:56:41;21.30;;;10.80;;
78750;SDS011;68070;50.954;11.060;2023-05-07T03:59:26;20.70;;;10.60;;
78750;SDS011;68070;50.954;11.060;2023-05-07T04:02:10;16.20;;;9.20;;
78750;SDS011;68070;50.954;11.060;2023-05-07T04:04:55;17.00;;;9.10;;
78750;SDS011;68070;50.954;11.060;2023-05-07T04:07:39;18.10;;;9.70;;
78750;SDS011;68070;50.954;11.060;2023-05-07T04:10:25;25.20;;;14.10;;
78750;SDS011;68070;50.954;11.060;2023-05-07T04:13:11;29.50;;;15.60;;
78750;SDS011;68070;50.954;11.060;2023-05-07T04:15:56;19.50;;;11.50;;
78750;SDS011;68070;50.954;11.060;2023-05-07T04:18:41;18.90;;;11.00;;
78750;SDS011;68070;50.954;11.060;2023-05-07T04:21:26;22.40;;;11.40;;
78750;SDS011;68070;50.954;11.060;2023-05-07T04:24:10;23.60;;;14.00;;
78750;SDS011;68070;50.954;11.060;2023-05-07T04:26:54;18.80;;;11.00;;
78750;SDS011;68070;50.954;11.060;2023-05-07T04:29:39;17.80;;;10.30;;
78750;SDS011;68070;50.954;11.060;2023-05-07T04:32:28;21.70;;;12.30;;
78750;SDS011;68070;50.954;11.060;2023-05-07T04:35:13;23.80;;;14.00;;
78750;SDS011;68070;50.954;11.060;2023-05-07T04:37:59;21.80;;;12.30;;
78750;SDS011;68070;50.954;11.060;2023-05-07T04:40:44;13.80;;;8.50;;
78750;SDS011;68070;50.954;11.060;2023-05-07T04:43:31;17.50;;;8.90;;
78750;SDS011;68070;50.954;11.060;2023-05-07T04:46:15;18.10;;;10.10;;
78750;SDS011;68070;50.954;11.060;2023-05-07T04:49:00;18.90;;;11.80;;
78750;SDS011;68070;50.954;11.060;2023-05-07T04:51:44;13.90;;;8.70;;
78750;SDS011;68070;50.954;11.060;2023-05-07T04:54:29;13.70;;;8.90;;
78750;SDS011;68070;50.954;11.060;2023-05-07T04:57:14;17.70;;;10.90;;
78750;SDS011;68070;50.954;11.060;2023-05-07T04:59:59;20.90;;;11.70;;
78750;SDS011;68070;50.954;11.060;2023-05-07T05:02:43;14.90;;;8.40;;
78750;SDS011;68070;50.954;11.060;2023-05-07T05:05:28;14.10;;;8.30;;
78750;SDS011;68070;50.954;11.060;2023-05-07T05:08:13;12.50;;;8.20;;
78750;SDS011;68070;50.954;11.060;2023-05-07T05:11:00;16.20;;;9.90;;
78750;SDS011;68070;50.954;11.060;2023-05-07T05:13:46;15.80;;;9.80;;
78750;SDS011;68070;50.954;11.060;2023-05-07T05:16:35;14.30;;;8.80;;
78750;SDS011;68070;50.954;11.060;2023-05-07T05:19:19;13.90;;;8.40;;
78750;SDS011;68070;50.954;11.060;2023-05-07T05:22:04;13.20;;;8.70;;
78750;SDS011;68070;50.954;11.060;2023-05-07T05:24:48;13.60;;;7.70;;
78750;SDS011;68070;50.954;11.060;2023-05-07T05:27:33;11.90;;;7.80;;
78750;SDS011;68070;50.954;11.060;2023-05-07T05:30:18;17.00;;;9.10;;
78750;SDS011;68070;50.954;11.060;2023-05-07T05:33:03;9.90;;;7.30;;
78750;SDS011;68070;50.954;11.060;2023-05-07T05:35:49;15.00;;;10.00;;
78750;SDS011;68070;50.954;11.060;2023-05-07T05:38:34;15.80;;;10.00;;
78750;SDS011;68070;50.954;11.060;2023-05-07T05:41:18;17.30;;;11.00;;
78750;SDS011;68070;50.954;11.060;2023-05-07T05:44:03;20.60;;;10.10;;
78750;SDS011;68070;50.954;11.060;2023-05-07T05:46:47;16.30;;;10.70;;
78750;SDS011;68070;50.954;11.060;2023-05-07T05:49:34;20.60;;;13.20;;
78750;SDS011;68070;50.954;11.060;2023-05-07T05:52:20;20.60;;;13.80;;
78750;SDS011;68070;50.954;11.060;2023-05-07T05:55:07;17.80;;;11.20;;
78750;SDS011;68070;50.954;11.060;2023-05-07T05:57:53;20.40;;;12.70;;
78750;SDS011;68070;50.954;11.060;2023-05-07T06:00:38;18.10;;;12.70;;
78750;SDS011;68070;50.954;11.060;2023-05-07T06:03:23;12.00;;;6.90;;
78750;SDS011;68070;50.954;11.060;2023-05-07T06:06:08;19.10;;;12.90;;
78750;SDS011;68070;50.954;11.060;2023-05-07T06:08:52;19.40;;;13.90;;
78750;SDS011;68070;50.954;11.060;2023-05-07T06:11:40;16.00;;;11.60;;
78750;SDS011;68070;50.954;11.060;2023-05-07T06:14:25;17.80;;;12.20;;
78750;SDS011;68070;50.954;11.060;2023-05-07T06:17:12;19.30;;;13.50;;
78750;SDS011;68070;50.954;11.060;2023-05-07T06:19:57;16.70;;;11.00;;
78750;SDS011;68070;50.954;11.060;2023-05-07T06:22:41;16.80;;;10.40;;
78750;SDS011;68070;50.954;11.060;2023-05-07T06:25:27;18.70;;;11.80;;
78750;SDS011;68070;50.954;11.060;2023-05-07T06:28:11;14.60;;;9.00;;
78750;SDS011;68070;50.954;11.060;2023-05-07T06:31:10;11.20;;;7.60;;
78750;SDS011;68070;50.954;11.060;2023-05-07T06:33:55;15.50;;;9.80;;
78750;SDS011;68070;50.954;11.060;2023-05-07T06:36:40;18.90;;;11.70;;
78750;SDS011;68070;50.954;11.060;2023-05-07T06:39:44;17.60;;;11.20;;
78750;SDS011;68070;50.954;11.060;2023-05-07T06:42:28;16.10;;;9.80;;
78750;SDS011;68070;50.954;11.060;2023-05-07T06:45:16;18.00;;;10.10;;
78750;SDS011;68070;50.954;11.060;2023-05-07T06:48:01;16.20;;;9.00;;
78750;SDS011;68070;50.954;11.060;2023-05-07T06:50:48;11.60;;;7.30;;
78750;SDS011;68070;50.954;11.060;2023-05-07T06:53:33;16.60;;;9.00;;
78750;SDS011;68070;50.954;11.060;2023-05-07T06:56:18;13.70;;;8.00;;
78750;SDS011;68070;50.954;11.060;2023-05-07T06:59:03;12.10;;;6.20;;
78750;SDS011;68070;50.954;11.060;2023-05-07T07:01:51;13.20;;;9.10;;
78750;SDS011;68070;50.954;11.060;2023-05-07T07:04:36;11.70;;;8.50;;
78750;SDS011;68070;50.954;11.060;2023-05-07T07:07:23;14.60;;;8.90;;
78750;SDS011;68070;50.954;11.060;2023-05-07T07:10:08;16.10;;;10.30;;
78750;SDS011;68070;50.954;11.060;2023-05-07T07:12:54;12.50;;;8.60;;
78750;SDS011;68070;50.954;11.060;2023-05-07T07:15:39;14.00;;;8.70;;
78750;SDS011;68070;50.954;11.060;2023-05-07T07:18:23;12.10;;;7.20;;
78750;SDS011;68070;50.954;11.060;2023-05-07T07:21:08;13.20;;;8.90;;
78750;SDS011;68070;50.954;11.060;2023-05-07T07:23:52;15.60;;;8.70;;
78750;SDS011;68070;50.954;11.060;2023-05-07T07:26:37;12.70;;;8.20;;
78750;SDS011;68070;50.954;11.060;2023-05-07T07:29:24;12.70;;;8.20;;
78750;SDS011;68070;50.954;11.060;2023-05-07T07:32:11;10.50;;;6.50;;
78750;SDS011;68070;50.954;11.060;2023-05-07T07:34:55;10.40;;;6.90;;
78750;SDS011;68070;50.954;11.060;2023-05-07T07:37:40;11.10;;;8.10;;
78750;SDS011;68070;50.954;11.060;2023-05-07T07:40:25;10.00;;;6.60;;
78750;SDS011;68070;50.954;11.060;2023-05-07T07:43:09;15.60;;;8.30;;
78750;SDS011;68070;50.954;11.060;2023-05-07T07:45:54;13.50;;;8.90;;
78750;SDS011;68070;50.954;11.060;2023-05-07T07:48:39;12.70;;;8.00;;
78750;SDS011;68070;50.954;11.060;2023-05-07T07:51:23;12.50;;;7.70;;
78750;SDS011;68070;50.954;11.060;2023-05-07T07:54:08;11.90;;;8.10;;
78750;SDS011;68070;50.954;11.060;2023-05-07T07:56:53;13.40;;;8.40;;
78750;SDS011;68070;50.954;11.060;2023-05-07T07:59:38;11.70;;;8.40;;
78750;SDS011;68070;50.954;11.060;2023-05-07T08:02:24;9.30;;;6.60;;
78750;SDS011;68070;50.954;11.060;2023-05-07T08:05:08;11.10;;;6.70;;
78750;SDS011;68070;50.954;11.060;2023-05-07T08:07:53;13.30;;;9.10;;
78750;SDS011;68070;50.954;11.060;2023-05-07T08:10:42;13.50;;;8.70;;
78750;SDS011;68070;50.954;11.060;2023-05-07T08:13:32;10.40;;;6.60;;
78750;SDS011;68070;50.954;11.060;2023-05-07T08:16:17;12.00;;;6.50;;
78750;SDS011;68070;50.954;11.060;2023-05-07T08:19:02;11.80;;;7.90;;
78750;SDS011;68070;50.954;11.060;2023-05-07T08:21:46;12.30;;;8.20;;
78750;SDS011;68070;50.954;11.060;2023-05-07T08:24:32;10.90;;;6.90;;
78750;SDS011;68070;50.954;11.060;2023-05-07T08:27:17;7.30;;;4.40;;
78750;SDS011;68070;50.954;11.060;2023-05-07T08:30:01;12.50;;;8.30;;
78750;SDS011;68070;50.954;11.060;2023-05-07T08:32:48;12.10;;;8.20;;
78750;SDS011;68070;50.954;11.060;2023-05-07T08:35:33;13.60;;;8.60;;
78750;SDS011;68070;50.954;11.060;2023-05-07T08:38:17;11.60;;;8.00;;
78750;SDS011;68070;50.954;11.060;2023-05-07T08:41:02;12.00;;;8.30;;
78750;SDS011;68070;50.954;11.060;2023-05-07T08:43:48;10.00;;;7.10;;
78750;SDS011;68070;50.954;11.060;2023-05-07T08:46:34;14.80;;;8.40;;
78750;SDS011;68070;50.954;11.060;2023-05-07T08:49:19;11.40;;;7.60;;
78750;SDS011;68070;50.954;11.060;2023-05-07T08:52:04;13.50;;;8.90;;
78750;SDS011;68070;50.954;11.060;2023-05-07T08:54:51;9.50;;;6.30;;
78750;SDS011;68070;50.954;11.060;2023-05-07T08:57:36;11.30;;;7.90;;
78750;SDS011;68070;50.954;11.060;2023-05-07T09:00:20;14.50;;;9.10;;
78750;SDS011;68070;50.954;11.060;2023-05-07T09:03:06;13.00;;;9.40;;
78750;SDS011;68070;50.954;11.060;2023-05-07T09:05:51;12.80;;;9.50;;
78750;SDS011;68070;50.954;11.060;2023-05-07T09:08:36;12.70;;;8.90;;
78750;SDS011;68070;50.954;11.060;2023-05-07T09:11:22;13.20;;;8.70;;
78750;SDS011;68070;50.954;11.060;2023-05-07T09:14:07;12.70;;;8.30;;
78750;SDS011;68070;50.954;11.060;2023-05-07T09:16:54;13.30;;;8.90;;
78750;SDS011;68070;50.954;11.060;2023-05-07T09:19:39;15.20;;;9.80;;
78750;SDS011;68070;50.954;11.060;2023-05-07T09:22:24;9.00;;;6.60;;
78750;SDS011;68070;50.954;11.060;2023-05-07T09:25:14;17.20;;;10.90;;
78750;SDS011;68070;50.954;11.060;2023-05-07T09:27:59;13.00;;;9.20;;
78750;SDS011;68070;50.954;11.060;2023-05-07T09:30:45;15.00;;;10.10;;
78750;SDS011;68070;50.954;11.060;2023-05-07T09:33:30;13.80;;;8.60;;
78750;SDS011;68070;50.954;11.060;2023-05-07T09:36:15;15.80;;;9.30;;
78750;SDS011;68070;50.954;11.060;2023-05-07T09:39:00;13.90;;;9.00;;
78750;SDS011;68070;50.954;11.060;2023-05-07T09:41:45;13.70;;;8.90;;
78750;SDS011;68070;50.954;11.060;2023-05-07T09:44:37;10.80;;;5.80;;
78750;SDS011;68070;50.954;11.060;2023-05-07T09:47:23;9.90;;;6.40;;
78750;SDS011;68070;50.954;11.060;2023-05-07T09:50:10;15.50;;;10.10;;
78750;SDS011;68070;50.954;11.060;2023-05-07T09:52:56;11.20;;;8.40;;
78750;SDS011;68070;50.954;11.060;2023-05-07T09:55:42;9.40;;;6.60;;
78750;SDS011;68070;50.954;11.060;2023-05-07T09:58:27;13.10;;;8.70;;
78750;SDS011;68070;50.954;11.060;2023-05-07T10:01:13;14.20;;;9.40;;
78750;SDS011;68070;50.954;11.060;2023-05-07T10:03:58;10.90;;;8.30;;
78750;SDS011;68070;50.954;11.060;2023-05-07T10:06:43;8.20;;;6.30;;
78750;SDS011;68070;50.954;11.060;2023-05-07T10:09:29;13.80;;;9.30;;
78750;SDS011;68070;50.954;11.060;2023-05-07T10:12:14;12.60;;;8.60;;
78750;SDS011;68070;50.954;11.060;2023-05-07T10:14:59;9.30;;;6.00;;
78750;SDS011;68070;50.954;11.060;2023-05-07T10:17:44;12.40;;;9.20;;
78750;SDS011;68070;50.954;11.060;2023-05-07T10:20:29;9.80;;;7.50;;
78750;SDS011;68070;50.954;11.060;2023-05-07T10:23:14;7.80;;;5.40;;
78750;SDS011;68070;50.954;11.060;2023-05-07T10:26:05;12.10;;;9.40;;
78750;SDS011;68070;50.954;11.060;2023-05-07T10:28:53;11.00;;;9.30;;
78750;SDS011;68070;50.954;11.060;2023-05-07T10:34:49;9.60;;;7.90;;
78750;SDS011;68070;50.954;11.060;2023-05-07T10:37:37;12.10;;;7.80;;
78750;SDS011;68070;50.954;11.060;2023-05-07T10:40:21;12.40;;;8.90;;
78750;SDS011;68070;50.954;11.060;2023-05-07T10:43:06;10.90;;;7.70;;
78750;SDS011;68070;50.954;11.060;2023-05-07T10:46:14;12.50;;;9.10;;
78750;SDS011;68070;50.954;11.060;2023-05-07T10:55:26;14.00;;;9.10;;
78750;SDS011;68070;50.954;11.060;2023-05-07T10:58:30;8.90;;;6.90;;
78750;SDS011;68070;50.954;11.060;2023-05-07T11:01:49;12.70;;;9.30;;
78750;SDS011;68070;50.954;11.060;2023-05-07T11:05:20;8.90;;;6.80;;
78750;SDS011;68070;50.954;11.060;2023-05-07T11:08:10;12.50;;;7.70;;
78750;SDS011;68070;50.954;11.060;2023-05-07T11:11:03;12.00;;;9.00;;
78750;SDS011;68070;50.954;11.060;2023-05-07T11:13:58;11.80;;;8.30;;
78750;SDS011;68070;50.954;11.060;2023-05-07T11:16:49;12.30;;;8.50;;
78750;SDS011;68070;50.954;11.060;2023-05-07T11:19:50;13.30;;;8.60;;
78750;SDS011;68070;50.954;11.060;2023-05-07T11:22:42;9.30;;;6.40;;
78750;SDS011;68070;50.954;11.060;2023-05-07T11:25:57;12.20;;;9.50;;
78750;SDS011;68070;50.954;11.060;2023-05-07T11:28:44;10.80;;;7.60;;
78750;SDS011;68070;50.954;11.060;2023-05-07T11:31:28;9.20;;;6.50;;
78750;SDS011;68070;50.954;11.060;2023-05-07T11:34:15;11.50;;;7.70;;
78750;SDS011;68070;50.954;11.060;2023-05-07T11:37:04;12.90;;;8.80;;
78750;SDS011;68070;50.954;11.060;2023-05-07T11:40:02;10.70;;;7.90;;
78750;SDS011;68070;50.954;11.060;2023-05-07T11:42:51;11.30;;;8.50;;
78750;SDS011;68070;50.954;11.060;2023-05-07T11:45:36;11.00;;;8.20;;
78750;SDS011;68070;50.954;11.060;2023-05-07T11:48:21;12.00;;;8.80;;
78750;SDS011;68070;50.954;11.060;2023-05-07T11:51:08;13.00;;;9.80;;
78750;SDS011;68070;50.954;11.060;2023-05-07T11:53:55;14.30;;;9.70;;
78750;SDS011;68070;50.954;11.060;2023-05-07T11:56:39;9.20;;;6.70;;
78750;SDS011;68070;50.954;11.060;2023-05-07T11:59:23;10.20;;;7.30;;
78750;SDS011;68070;50.954;11.060;2023-05-07T12:02:08;11.10;;;7.80;;
78750;SDS011;68070;50.954;11.060;2023-05-07T12:04:52;9.30;;;7.10;;
78750;SDS011;68070;50.954;11.060;2023-05-07T12:07:37;10.70;;;8.60;;
78750;SDS011;68070;50.954;11.060;2023-05-07T12:10:22;11.70;;;9.50;;
78750;SDS011;68070;50.954;11.060;2023-05-07T12:13:13;9.80;;;7.00;;
78750;SDS011;68070;50.954;11.060;2023-05-07T12:16:05;9.10;;;7.00;;
78750;SDS011;68070;50.954;11.060;2023-05-07T12:18:51;9.90;;;7.20;;
78750;SDS011;68070;50.954;11.060;2023-05-07T12:21:36;7.80;;;5.40;;
78750;SDS011;68070;50.954;11.060;2023-05-07T12:24:21;10.00;;;6.70;;
78750;SDS011;68070;50.954;11.060;2023-05-07T12:27:05;6.90;;;4.70;;
78750;SDS011;68070;50.954;11.060;2023-05-07T12:29:50;9.60;;;7.50;;
78750;SDS011;68070;50.954;11.060;2023-05-07T12:32:35;11.70;;;9.40;;
78750;SDS011;68070;50.954;11.060;2023-05-07T12:35:30;7.70;;;5.10;;
78750;SDS011;68070;50.954;11.060;2023-05-07T12:38:16;9.90;;;6.40;;
78750;SDS011;68070;50.954;11.060;2023-05-07T12:41:01;11.00;;;8.30;;
78750;SDS011;68070;50.954;11.060;2023-05-07T12:43:46;11.10;;;7.70;;
78750;SDS011;68070;50.954;11.060;2023-05-07T12:46:31;10.30;;;7.20;;
78750;SDS011;68070;50.954;11.060;2023-05-07T12:49:15;9.50;;;5.90;;
78750;SDS011;68070;50.954;11.060;2023-05-07T12:52:00;7.70;;;6.00;;
78750;SDS011;68070;50.954;11.060;2023-05-07T12:54:44;10.40;;;7.10;;
78750;SDS011;68070;50.954;11.060;2023-05-07T12:57:29;12.40;;;8.50;;
78750;SDS011;68070;50.954;11.060;2023-05-07T13:00:14;10.00;;;7.70;;
78750;SDS011;68070;50.954;11.060;2023-05-07T13:02:58;8.60;;;6.90;;
78750;SDS011;68070;50.954;11.060;2023-05-07T13:05:43;8.90;;;5.90;;
78750;SDS011;68070;50.954;11.060;2023-05-07T13:11:16;9.40;;;7.40;;
78750;SDS011;68070;50.954;11.060;2023-05-07T13:14:00;7.00;;;5.30;;
78750;SDS011;68070;50.954;11.060;2023-05-07T14:19:52;6.40;;;5.40;;
78750;SDS011;68070;50.954;11.060;2023-05-07T14:22:38;8.50;;;6.30;;
78750;SDS011;68070;50.954;11.060;2023-05-07T14:25:23;6.90;;;4.70;;
78750;SDS011;68070;50.954;11.060;2023-05-07T14:28:08;7.20;;;5.60;;
78750;SDS011;68070;50.954;11.060;2023-05-07T14:30:52;7.30;;;5.40;;
78750;SDS011;68070;50.954;11.060;2023-05-07T14:33:37;5.70;;;4.60;;
78750;SDS011;68070;50.954;11.060;2023-05-07T14:36:21;7.00;;;6.00;;
78750;SDS011;68070;50.954;11.060;2023-05-07T14:39:06;9.00;;;5.70;;
78750;SDS011;68070;50.954;11.060;2023-05-07T14:41:51;6.00;;;4.40;;
78750;SDS011;68070;50.954;11.060;2023-05-07T14:44:36;6.90;;;5.60;;
78750;SDS011;68070;50.954;11.060;2023-05-07T14:47:21;6.40;;;4.80;;
78750;SDS011;68070;50.954;11.060;2023-05-07T14:50:05;7.60;;;5.60;;
78750;SDS011;68070;50.954;11.060;2023-05-07T14:52:49;8.00;;;4.70;;
78750;SDS011;68070;50.954;11.060;2023-05-07T14:55:34;5.20;;;4.00;;
78750;SDS011;68070;50.954;11.060;2023-05-07T14:58:19;5.20;;;3.90;;
78750;SDS011;68070;50.954;11.060;2023-05-07T15:01:03;5.60;;;4.50;;
78750;SDS011;68070;50.954;11.060;2023-05-07T15:03:47;5.30;;;3.30;;
78750;SDS011;68070;50.954;11.060;2023-05-07T15:06:32;5.50;;;4.50;;
78750;SDS011;68070;50.954;11.060;2023-05-07T15:09:17;6.20;;;4.80;;
78750;SDS011;68070;50.954;11.060;2023-05-07T15:12:01;5.50;;;4.50;;
78750;SDS011;68070;50.954;11.060;2023-05-07T15:14:46;4.90;;;4.30;;
78750;SDS011;68070;50.954;11.060;2023-05-07T15:17:30;4.40;;;3.00;;
78750;SDS011;68070;50.954;11.060;2023-05-07T15:20:15;4.50;;;4.00;;
78750;SDS011;68070;50.954;11.060;2023-05-07T15:22:59;4.30;;;3.10;;
78750;SDS011;68070;50.954;11.060;2023-05-07T15:25:43;5.50;;;4.00;;
78750;SDS011;68070;50.954;11.060;2023-05-07T15:28:27;4.00;;;3.00;;
78750;SDS011;68070;50.954;11.060;2023-05-07T15:31:13;4.40;;;2.80;;
78750;SDS011;68070;50.954;11.060;2023-05-07T15:33:59;4.50;;;4.10;;
78750;SDS011;68070;50.954;11.060;2023-05-07T15:36:44;5.30;;;4.10;;
78750;SDS011;68070;50.954;11.060;2023-05-07T15:39:29;5.40;;;3.70;;
78750;SDS011;68070;50.954;11.060;2023-05-07T15:42:14;6.70;;;4.00;;
78750;SDS011;68070;50.954;11.060;2023-05-07T15:44:59;4.80;;;4.00;;
78750;SDS011;68070;50.954;11.060;2023-05-07T15:47:45;4.30;;;3.90;;
78750;SDS011;68070;50.954;11.060;2023-05-07T15:50:29;6.60;;;3.70;;
78750;SDS011;68070;50.954;11.060;2023-05-07T15:53:14;4.20;;;2.90;;
78750;SDS011;68070;50.954;11.060;2023-05-07T15:55:58;5.60;;;4.10;;
78750;SDS011;68070;50.954;11.060;2023-05-07T15:58:43;6.50;;;5.10;;
78750;SDS011;68070;50.954;11.060;2023-05-07T16:01:27;5.20;;;4.70;;
78750;SDS011;68070;50.954;11.060;2023-05-07T16:04:12;6.30;;;5.00;;
78750;SDS011;68070;50.954;11.060;2023-05-07T16:06:56;6.80;;;4.80;;
78750;SDS011;68070;50.954;11.060;2023-05-07T16:09:41;4.20;;;3.70;;
78750;SDS011;68070;50.954;11.060;2023-05-07T16:12:26;6.50;;;5.80;;
78750;SDS011;68070;50.954;11.060;2023-05-07T16:15:10;6.70;;;5.90;;
78750;SDS011;68070;50.954;11.060;2023-05-07T16:17:55;7.60;;;4.80;;
78750;SDS011;68070;50.954;11.060;2023-05-07T16:20:41;6.30;;;5.20;;
78750;SDS011;68070;50.954;11.060;2023-05-07T16:23:26;5.60;;;4.60;;
78750;SDS011;68070;50.954;11.060;2023-05-07T16:26:10;4.80;;;3.80;;
78750;SDS011;68070;50.954;11.060;2023-05-07T16:28:57;6.40;;;4.80;;
78750;SDS011;68070;50.954;11.060;2023-05-07T16:31:42;7.10;;;5.80;;
78750;SDS011;68070;50.954;11.060;2023-05-07T16:34:27;7.00;;;6.00;;
78750;SDS011;68070;50.954;11.060;2023-05-07T16:37:12;5.40;;;4.50;;
78750;SDS011;68070;50.954;11.060;2023-05-07T16:39:57;6.30;;;5.00;;
78750;SDS011;68070;50.954;11.060;2023-05-07T16:42:43;8.00;;;6.00;;
78750;SDS011;68070;50.954;11.060;2023-05-07T16:45:28;6.60;;;5.50;;
78750;SDS011;68070;50.954;11.060;2023-05-07T16:48:12;6.60;;;5.80;;
78750;SDS011;68070;50.954;11.060;2023-05-07T16:50:57;7.00;;;5.10;;
78750;SDS011;68070;50.954;11.060;2023-05-07T16:53:42;5.90;;;5.20;;
78750;SDS011;68070;50.954;11.060;2023-05-07T16:56:26;5.20;;;3.20;;
78750;SDS011;68070;50.954;11.060;2023-05-07T16:59:11;5.90;;;4.50;;
78750;SDS011;68070;50.954;11.060;2023-05-07T17:01:55;6.40;;;4.10;;
78750;SDS011;68070;50.954;11.060;2023-05-07T17:04:39;5.50;;;4.80;;
78750;SDS011;68070;50.954;11.060;2023-05-07T17:07:24;6.30;;;5.50;;
78750;SDS011;68070;50.954;11.060;2023-05-07T17:10:09;5.80;;;4.30;;
78750;SDS011;68070;50.954;11.060;2023-05-07T17:12:54;5.60;;;4.50;;
78750;SDS011;68070;50.954;11.060;2023-05-07T17:15:38;10.20;;;6.50;;
78750;SDS011;68070;50.954;11.060;2023-05-07T17:18:24;4.30;;;3.60;;
78750;SDS011;68070;50.954;11.060;2023-05-07T17:21:09;7.10;;;5.10;;
78750;SDS011;68070;50.954;11.060;2023-05-07T17:23:53;8.10;;;5.40;;
78750;SDS011;68070;50.954;11.060;2023-05-07T17:26:38;9.30;;;6.10;;